sensor_id;sensor_type;location;lat;lon;timestamp;pressure;altitude;pressure_sealevel;temperature;humidity
9335;BME280;4706;41.844;26.082;2023-05-23T00:01:35;100403.31;;;19.95;78.20
9335;BME280;4706;41.844;26.082;2023-05-23T00:04:03;100401.78;;;19.97;78.53
9335;BME280;4706;41.844;26.082;2023-05-23T00:06:29;100404.84;;;19.92;78.61
9335;BME280;4706;41.844;26.082;2023-05-23T00:08:55;100410.88;;;19.94;78.47
9335;BME280;4706;41.844;26.082;2023-05-23T00:11:22;100407.28;;;19.94;78.41
9335;BME280;4706;41.844;26.082;2023-05-23T00:13:54;100409.06;;;19.82;79.02
9335;BME280;4706;41.844;26.082;2023-05-23T00:16:22;100409.88;;;19.83;79.22
9335;BME280;4706;41.844;26.082;2023-05-23T00:18:48;100409.00;;;19.79;79.12
9335;BME280;4706;41.844;26.082;2023-05-23T00:21:14;100392.25;;;19.79;79.09
9335;BME280;4706;41.844;26.082;2023-05-23T00:23:41;100381.28;;;19.70;79.30
9335;BME280;4706;41.844;26.082;2023-05-23T00:26:10;100403.75;;;19.77;79.59
9335;BME280;4706;41.844;26.082;2023-05-23T00:28:36;100398.69;;;19.63;79.94
9335;BME280;4706;41.844;26.082;2023-05-23T00:31:02;100399.94;;;19.66;79.83
9335;BME280;4706;41.844;26.082;2023-05-23T00:33:27;100391.03;;;19.60;80.10
9335;BME280;4706;41.844;26.082;2023-05-23T00:35:54;100393.38;;;19.58;80.22
9335;BME280;4706;41.844;26.082;2023-05-23T00:38:19;100408.69;;;19.64;80.50
9335;BME280;4706;41.844;26.082;2023-05-23T00:40:46;100400.94;;;19.58;80.56
9335;BME280;4706;41.844;26.082;2023-05-23T00:43:12;100389.78;;;19.58;80.41
9335;BME280;4706;41.844;26.082;2023-05-23T00:45:38;100407.06;;;19.63;80.66
9335;BME280;4706;41.844;26.082;2023-05-23T00:48:05;100391.22;;;19.52;80.48
9335;BME280;4706;41.844;26.082;2023-05-23T00:50:32;100402.31;;;19.64;80.47
9335;BME280;4706;41.844;26.082;2023-05-23T00:52:59;100390.34;;;19.48;80.23
9335;BME280;4706;41.844;26.082;2023-05-23T00:55:25;100401.72;;;19.39;81.24
9335;BME280;4706;41.844;26.082;2023-05-23T00:57:53;100393.28;;;19.35;81.22
9335;BME280;4706;41.844;26.082;2023-05-23T01:00:22;100385.72;;;19.36;81.41
9335;BME280;4706;41.844;26.082;2023-05-23T01:02:49;100386.66;;;19.44;81.05
9335;BME280;4706;41.844;26.082;2023-05-23T01:05:19;100397.56;;;19.49;80.98
9335;BME280;4706;41.844;26.082;2023-05-23T01:07:50;100389.63;;;19.51;80.55
9335;BME280;4706;41.844;26.082;2023-05-23T01:10:18;100387.63;;;19.51;80.94
9335;BME280;4706;41.844;26.082;2023-05-23T01:13:28;100373.91;;;19.42;80.21
9335;BME280;4706;41.844;26.082;2023-05-23T01:15:49;100379.09;;;19.44;80.73
9335;BME280;4706;41.844;26.082;2023-05-23T01:18:47;100376.78;;;19.46;80.64
9335;BME280;4706;41.844;26.082;2023-05-23T01:21:21;100363.06;;;19.37;80.13
9335;BME280;4706;41.844;26.082;2023-05-23T01:24:14;100380.22;;;19.39;80.25
9335;BME280;4706;41.844;26.082;2023-05-23T01:29:32;100386.81;;;19.31;80.57
9335;BME280;4706;41.844;26.082;2023-05-23T01:31:59;100355.38;;;19.15;80.34
9335;BME280;4706;41.844;26.082;2023-05-23T01:34:27;100381.59;;;19.30;80.02
9335;BME280;4706;41.844;26.082;2023-05-23T01:36:53;100374.38;;;19.29;79.55
9335;BME280;4706;41.844;26.082;2023-05-23T01:39:20;100373.06;;;19.23;79.46
9335;BME280;4706;41.844;26.082;2023-05-23T01:41:48;100377.09;;;19.25;79.48
9335;BME280;4706;41.844;26.082;2023-05-23T01:44:14;100352.63;;;18.99;80.09
9335;BME280;4706;41.844;26.082;2023-05-23T01:46:40;100368.34;;;19.07;79.46
9335;BME280;4706;41.844;26.082;2023-05-23T01:49:07;100374.97;;;19.19;79.11
9335;BME280;4706;41.844;26.082;2023-05-23T01:51:34;100373.81;;;19.20;79.06
9335;BME280;4706;41.844;26.082;2023-05-23T01:53:59;100376.44;;;19.12;79.37
9335;BME280;4706;41.844;26.082;2023-05-23T01:56:26;100364.00;;;19.10;78.99
9335;BME280;4706;41.844;26.082;2023-05-23T01:58:53;100363.75;;;18.99;79.09
9335;BME280;4706;41.844;26.082;2023-05-23T02:01:18;100356.50;;;18.95;79.32
9335;BME280;4706;41.844;26.082;2023-05-23T02:03:44;100370.25;;;18.87;79.92
9335;BME280;4706;41.844;26.082;2023-05-23T02:06:10;100358.06;;;18.92;79.19
9335;BME280;4706;41.844;26.082;2023-05-23T02:08:36;100374.69;;;18.88;79.68
9335;BME280;4706;41.844;26.082;2023-05-23T02:11:01;100361.81;;;18.84;79.41
9335;BME280;4706;41.844;26.082;2023-05-23T02:13:27;100365.88;;;18.86;79.26
9335;BME280;4706;41.844;26.082;2023-05-23T02:15:53;100369.19;;;18.76;79.64
9335;BME280;4706;41.844;26.082;2023-05-23T02:18:19;100380.44;;;18.80;79.94
9335;BME280;4706;41.844;26.082;2023-05-23T02:20:45;100374.56;;;18.69;80.25
9335;BME280;4706;41.844;26.082;2023-05-23T02:23:11;100377.53;;;18.60;81.16
9335;BME280;4706;41.844;26.082;2023-05-23T02:25:37;100387.25;;;18.51;81.62
9335;BME280;4706;41.844;26.082;2023-05-23T02:28:02;100392.38;;;18.64;81.19
9335;BME280;4706;41.844;26.082;2023-05-23T02:30:28;100383.91;;;18.61;81.25
9335;BME280;4706;41.844;26.082;2023-05-23T02:32:53;100379.69;;;18.67;80.73
9335;BME280;4706;41.844;26.082;2023-05-23T02:35:19;100380.88;;;18.66;80.28
9335;BME280;4706;41.844;26.082;2023-05-23T02:37:45;100383.28;;;18.67;80.40
9335;BME280;4706;41.844;26.082;2023-05-23T02:40:10;100387.97;;;18.63;80.48
9335;BME280;4706;41.844;26.082;2023-05-23T02:42:36;100373.06;;;18.56;80.22
9335;BME280;4706;41.844;26.082;2023-05-23T02:45:02;100384.38;;;18.63;80.08
9335;BME280;4706;41.844;26.082;2023-05-23T02:47:27;100327.16;;;18.34;80.05
9335;BME280;4706;41.844;26.082;2023-05-23T02:49:53;100375.31;;;18.66;80.17
9335;BME280;4706;41.844;26.082;2023-05-23T02:52:18;100384.72;;;18.61;80.44
9335;BME280;4706;41.844;26.082;2023-05-23T02:54:44;100387.50;;;18.61;80.31
9335;BME280;4706;41.844;26.082;2023-05-23T02:57:09;100388.59;;;18.57;80.28
9335;BME280;4706;41.844;26.082;2023-05-23T02:59:35;100381.50;;;18.59;80.54
9335;BME280;4706;41.844;26.082;2023-05-23T03:02:01;100396.69;;;18.62;81.08
9335;BME280;4706;41.844;26.082;2023-05-23T03:04:26;100401.72;;;18.56;81.26
9335;BME280;4706;41.844;26.082;2023-05-23T03:06:52;100411.75;;;18.45;82.45
9335;BME280;4706;41.844;26.082;2023-05-23T03:09:18;100401.34;;;18.58;81.68
9335;BME280;4706;41.844;26.082;2023-05-23T03:11:44;100391.38;;;18.41;82.20
9335;BME280;4706;41.844;26.082;2023-05-23T03:14:09;100397.84;;;18.45;81.90
9335;BME280;4706;41.844;26.082;2023-05-23T03:16:35;100401.91;;;18.48;82.34
9335;BME280;4706;41.844;26.082;2023-05-23T03:19:00;100398.41;;;18.51;81.82
9335;BME280;4706;41.844;26.082;2023-05-23T03:21:26;100392.09;;;18.54;81.57
9335;BME280;4706;41.844;26.082;2023-05-23T03:23:52;100395.53;;;18.63;81.68
9335;BME280;4706;41.844;26.082;2023-05-23T03:26:17;100411.88;;;18.64;81.49
9335;BME280;4706;41.844;26.082;2023-05-23T03:28:43;100400.28;;;18.62;81.23
9335;BME280;4706;41.844;26.082;2023-05-23T03:31:09;100401.09;;;18.63;81.19
9335;BME280;4706;41.844;26.082;2023-05-23T03:33:34;100414.56;;;18.61;80.93
9335;BME280;4706;41.844;26.082;2023-05-23T03:35:59;100409.00;;;18.77;80.74
9335;BME280;4706;41.844;26.082;2023-05-23T03:38:26;100403.59;;;18.68;81.40
9335;BME280;4706;41.844;26.082;2023-05-23T03:40:51;100410.72;;;18.65;81.70
9335;BME280;4706;41.844;26.082;2023-05-23T03:43:18;100411.06;;;18.64;81.48
9335;BME280;4706;41.844;26.082;2023-05-23T03:45:44;100406.28;;;18.49;82.69
9335;BME280;4706;41.844;26.082;2023-05-23T03:48:10;100413.75;;;18.44;83.80
9335;BME280;4706;41.844;26.082;2023-05-23T03:50:36;100412.94;;;18.44;83.75
9335;BME280;4706;41.844;26.082;2023-05-23T03:53:02;100413.13;;;18.51;83.96
9335;BME280;4706;41.844;26.082;2023-05-23T03:55:29;100408.72;;;18.50;84.22
9335;BME280;4706;41.844;26.082;2023-05-23T03:57:56;100414.03;;;18.55;84.08
9335;BME280;4706;41.844;26.082;2023-05-23T04:00:22;100420.13;;;18.61;84.09
9335;BME280;4706;41.844;26.082;2023-05-23T04:02:47;100424.72;;;18.69;83.48
9335;BME280;4706;41.844;26.082;2023-05-23T04:05:14;100432.47;;;18.76;83.74
9335;BME280;4706;41.844;26.082;2023-05-23T04:07:40;100430.34;;;18.85;83.13
9335;BME280;4706;41.844;26.082;2023-05-23T04:10:07;100411.78;;;18.77;83.39
9335;BME280;4706;41.844;26.082;2023-05-23T04:12:33;100420.41;;;18.87;83.00
9335;BME280;4706;41.844;26.082;2023-05-23T04:14:59;100428.06;;;18.90;82.57
9335;BME280;4706;41.844;26.082;2023-05-23T04:17:25;100398.59;;;18.74;82.46
9335;BME280;4706;41.844;26.082;2023-05-23T04:19:55;100428.97;;;18.95;82.86
9335;BME280;4706;41.844;26.082;2023-05-23T04:22:21;100428.44;;;18.89;83.47
9335;BME280;4706;41.844;26.082;2023-05-23T04:24:46;100429.34;;;18.93;83.32
9335;BME280;4706;41.844;26.082;2023-05-23T04:27:12;100419.38;;;18.92;83.18
9335;BME280;4706;41.844;26.082;2023-05-23T04:29:38;100436.78;;;19.05;82.82
9335;BME280;4706;41.844;26.082;2023-05-23T04:32:07;100441.63;;;19.08;82.85
9335;BME280;4706;41.844;26.082;2023-05-23T04:34:32;100425.44;;;19.13;82.46
9335;BME280;4706;41.844;26.082;2023-05-23T04:37:01;100405.13;;;18.97;82.18
9335;BME280;4706;41.844;26.082;2023-05-23T04:39:29;100422.47;;;19.22;82.00
9335;BME280;4706;41.844;26.082;2023-05-23T04:41:55;100421.00;;;19.28;81.77
9335;BME280;4706;41.844;26.082;2023-05-23T04:44:22;100428.63;;;19.31;81.76
9335;BME280;4706;41.844;26.082;2023-05-23T04:46:48;100426.91;;;19.42;82.04
9335;BME280;4706;41.844;26.082;2023-05-23T04:49:15;100419.19;;;19.55;80.66
9335;BME280;4706;41.844;26.082;2023-05-23T04:51:41;100420.66;;;19.65;80.03
9335;BME280;4706;41.844;26.082;2023-05-23T04:54:06;100405.16;;;19.52;80.24
9335;BME280;4706;41.844;26.082;2023-05-23T04:56:32;100423.13;;;19.70;79.76
9335;BME280;4706;41.844;26.082;2023-05-23T04:58:57;100400.19;;;19.61;79.39
9335;BME280;4706;41.844;26.082;2023-05-23T05:01:23;100415.72;;;19.78;79.07
9335;BME280;4706;41.844;26.082;2023-05-23T05:03:49;100424.47;;;19.76;79.26
9335;BME280;4706;41.844;26.082;2023-05-23T05:06:15;100430.13;;;19.80;79.23
9335;BME280;4706;41.844;26.082;2023-05-23T05:08:42;100416.47;;;19.75;78.62
9335;BME280;4706;41.844;26.082;2023-05-23T05:11:08;100427.72;;;19.78;78.54
9335;BME280;4706;41.844;26.082;2023-05-23T05:13:34;100427.50;;;19.87;78.31
9335;BME280;4706;41.844;26.082;2023-05-23T05:16:00;100440.72;;;19.90;78.75
9335;BME280;4706;41.844;26.082;2023-05-23T05:18:25;100427.03;;;19.85;78.76
9335;BME280;4706;41.844;26.082;2023-05-23T05:20:51;100415.94;;;19.69;78.90
9335;BME280;4706;41.844;26.082;2023-05-23T05:23:17;100441.44;;;19.87;78.83
9335;BME280;4706;41.844;26.082;2023-05-23T05:25:43;100440.19;;;19.84;78.82
9335;BME280;4706;41.844;26.082;2023-05-23T05:28:08;100434.91;;;19.79;78.43
9335;BME280;4706;41.844;26.082;2023-05-23T05:30:34;100439.31;;;19.80;78.38
9335;BME280;4706;41.844;26.082;2023-05-23T05:33:01;100432.38;;;19.74;78.81
9335;BME280;4706;41.844;26.082;2023-05-23T05:35:29;100438.50;;;19.80;78.45
9335;BME280;4706;41.844;26.082;2023-05-23T05:37:55;100433.66;;;19.77;78.78
9335;BME280;4706;41.844;26.082;2023-05-23T05:40:21;100413.34;;;19.60;78.97
9335;BME280;4706;41.844;26.082;2023-05-23T05:42:46;100447.69;;;19.80;79.08
9335;BME280;4706;41.844;26.082;2023-05-23T05:45:12;100438.19;;;19.85;78.46
9335;BME280;4706;41.844;26.082;2023-05-23T05:47:37;100448.25;;;19.89;78.80
9335;BME280;4706;41.844;26.082;2023-05-23T05:50:04;100438.50;;;19.80;79.11
9335;BME280;4706;41.844;26.082;2023-05-23T05:52:32;100435.63;;;19.76;79.10
9335;BME280;4706;41.844;26.082;2023-05-23T05:54:58;100446.22;;;19.86;79.23
9335;BME280;4706;41.844;26.082;2023-05-23T05:57:24;100441.53;;;19.91;79.06
9335;BME280;4706;41.844;26.082;2023-05-23T05:59:49;100448.34;;;19.93;79.13
9335;BME280;4706;41.844;26.082;2023-05-23T06:02:15;100442.91;;;20.00;79.44
9335;BME280;4706;41.844;26.082;2023-05-23T06:04:40;100445.03;;;20.07;79.33
9335;BME280;4706;41.844;26.082;2023-05-23T06:07:06;100458.19;;;20.06;80.02
9335;BME280;4706;41.844;26.082;2023-05-23T06:09:31;100449.66;;;19.99;79.96
9335;BME280;4706;41.844;26.082;2023-05-23T06:11:57;100464.22;;;20.08;78.92
9335;BME280;4706;41.844;26.082;2023-05-23T06:14:22;100452.22;;;20.08;78.54
9335;BME280;4706;41.844;26.082;2023-05-23T06:16:48;100453.09;;;20.12;78.73
9335;BME280;4706;41.844;26.082;2023-05-23T06:19:14;100445.84;;;20.07;78.12
9335;BME280;4706;41.844;26.082;2023-05-23T06:21:39;100439.09;;;20.08;77.68
9335;BME280;4706;41.844;26.082;2023-05-23T06:24:05;100444.72;;;20.12;78.31
9335;BME280;4706;41.844;26.082;2023-05-23T06:26:31;100447.66;;;20.19;77.88
9335;BME280;4706;41.844;26.082;2023-05-23T06:28:57;100447.72;;;20.23;78.34
9335;BME280;4706;41.844;26.082;2023-05-23T06:31:23;100455.66;;;20.40;77.82
9335;BME280;4706;41.844;26.082;2023-05-23T06:33:48;100450.88;;;20.41;77.04
9335;BME280;4706;41.844;26.082;2023-05-23T06:36:14;100444.47;;;20.40;76.85
9335;BME280;4706;41.844;26.082;2023-05-23T06:38:39;100445.22;;;20.37;77.18
9335;BME280;4706;41.844;26.082;2023-05-23T06:41:05;100446.16;;;20.45;77.30
9335;BME280;4706;41.844;26.082;2023-05-23T06:43:31;100455.34;;;20.45;77.35
9335;BME280;4706;41.844;26.082;2023-05-23T06:45:56;100456.16;;;20.46;77.54
9335;BME280;4706;41.844;26.082;2023-05-23T06:48:22;100446.09;;;20.41;77.90
9335;BME280;4706;41.844;26.082;2023-05-23T06:50:48;100450.50;;;20.42;78.71
9335;BME280;4706;41.844;26.082;2023-05-23T06:53:13;100452.47;;;20.42;80.21
9335;BME280;4706;41.844;26.082;2023-05-23T06:55:40;100445.28;;;20.41;82.14
9335;BME280;4706;41.844;26.082;2023-05-23T06:58:06;100446.81;;;20.38;83.24
9335;BME280;4706;41.844;26.082;2023-05-23T07:00:31;100442.50;;;20.41;84.42
9335;BME280;4706;41.844;26.082;2023-05-23T07:02:57;100442.06;;;20.38;84.26
9335;BME280;4706;41.844;26.082;2023-05-23T07:05:27;100434.13;;;20.41;85.30
9335;BME280;4706;41.844;26.082;2023-05-23T07:07:53;100434.56;;;20.43;84.84
9335;BME280;4706;41.844;26.082;2023-05-23T07:10:19;100436.97;;;20.44;84.88
9335;BME280;4706;41.844;26.082;2023-05-23T07:12:45;100429.56;;;20.52;83.69
9335;BME280;4706;41.844;26.082;2023-05-23T07:15:11;100430.94;;;20.42;84.00
9335;BME280;4706;41.844;26.082;2023-05-23T07:17:37;100434.56;;;20.43;84.54
9335;BME280;4706;41.844;26.082;2023-05-23T07:20:02;100423.75;;;20.41;85.12
9335;BME280;4706;41.844;26.082;2023-05-23T07:22:29;100429.41;;;20.45;86.52
9335;BME280;4706;41.844;26.082;2023-05-23T07:24:55;100433.00;;;20.45;87.80
9335;BME280;4706;41.844;26.082;2023-05-23T07:27:21;100419.47;;;20.47;88.71
9335;BME280;4706;41.844;26.082;2023-05-23T07:29:47;100417.72;;;20.58;88.62
9335;BME280;4706;41.844;26.082;2023-05-23T07:32:12;100430.09;;;20.61;89.44
9335;BME280;4706;41.844;26.082;2023-05-23T07:34:37;100418.00;;;20.53;90.06
9335;BME280;4706;41.844;26.082;2023-05-23T07:37:03;100427.38;;;20.65;90.33
9335;BME280;4706;41.844;26.082;2023-05-23T07:39:29;100425.50;;;20.72;90.28
9335;BME280;4706;41.844;26.082;2023-05-23T07:41:54;100432.91;;;20.84;90.19
9335;BME280;4706;41.844;26.082;2023-05-23T07:44:20;100432.38;;;21.01;90.40
9335;BME280;4706;41.844;26.082;2023-05-23T07:46:45;100440.09;;;21.08;90.49
9335;BME280;4706;41.844;26.082;2023-05-23T07:49:11;100432.66;;;21.19;89.25
9335;BME280;4706;41.844;26.082;2023-05-23T07:51:37;100445.25;;;21.32;88.81
9335;BME280;4706;41.844;26.082;2023-05-23T07:54:02;100433.03;;;21.41;89.27
9335;BME280;4706;41.844;26.082;2023-05-23T07:56:28;100428.75;;;21.50;86.94
9335;BME280;4706;41.844;26.082;2023-05-23T07:58:53;100436.44;;;21.57;85.50
9335;BME280;4706;41.844;26.082;2023-05-23T08:01:19;100434.69;;;21.45;86.66
9335;BME280;4706;41.844;26.082;2023-05-23T08:03:44;100439.09;;;21.46;86.84
9335;BME280;4706;41.844;26.082;2023-05-23T08:06:10;100437.63;;;21.56;86.38
9335;BME280;4706;41.844;26.082;2023-05-23T08:08:36;100423.44;;;21.42;86.36
9335;BME280;4706;41.844;26.082;2023-05-23T08:11:02;100435.19;;;21.54;86.52
9335;BME280;4706;41.844;26.082;2023-05-23T08:13:29;100442.69;;;21.77;85.01
9335;BME280;4706;41.844;26.082;2023-05-23T08:15:54;100441.59;;;21.85;85.67
9335;BME280;4706;41.844;26.082;2023-05-23T08:18:20;100432.97;;;21.97;83.92
9335;BME280;4706;41.844;26.082;2023-05-23T08:20:45;100440.13;;;21.95;83.36
9335;BME280;4706;41.844;26.082;2023-05-23T08:23:11;100435.44;;;22.02;84.96
9335;BME280;4706;41.844;26.082;2023-05-23T08:25:38;100431.72;;;21.95;84.53
9335;BME280;4706;41.844;26.082;2023-05-23T08:28:04;100435.56;;;22.13;85.25
9335;BME280;4706;41.844;26.082;2023-05-23T08:30:30;100431.22;;;22.16;83.86
9335;BME280;4706;41.844;26.082;2023-05-23T08:32:59;100428.50;;;22.23;84.64
9335;BME280;4706;41.844;26.082;2023-05-23T08:35:25;100421.69;;;22.24;84.26
9335;BME280;4706;41.844;26.082;2023-05-23T08:37:53;100419.50;;;22.44;82.74
9335;BME280;4706;41.844;26.082;2023-05-23T08:40:21;100433.44;;;22.77;81.05
9335;BME280;4706;41.844;26.082;2023-05-23T08:42:47;100416.78;;;22.95;79.31
9335;BME280;4706;41.844;26.082;2023-05-23T08:45:13;100418.97;;;23.23;79.23
9335;BME280;4706;41.844;26.082;2023-05-23T08:47:44;100432.78;;;23.54;77.24
9335;BME280;4706;41.844;26.082;2023-05-23T08:50:14;100425.34;;;23.83;71.17
9335;BME280;4706;41.844;26.082;2023-05-23T08:53:03;100417.38;;;23.99;69.21
9335;BME280;4706;41.844;26.082;2023-05-23T08:55:28;100421.47;;;24.16;68.38
9335;BME280;4706;41.844;26.082;2023-05-23T08:57:56;100425.91;;;24.35;67.30
9335;BME280;4706;41.844;26.082;2023-05-23T09:00:25;100428.00;;;24.49;66.62
9335;BME280;4706;41.844;26.082;2023-05-23T09:02:51;100417.56;;;24.56;65.72
9335;BME280;4706;41.844;26.082;2023-05-23T09:05:17;100424.78;;;24.54;64.89
9335;BME280;4706;41.844;26.082;2023-05-23T09:07:45;100440.06;;;24.60;64.32
9335;BME280;4706;41.844;26.082;2023-05-23T09:10:15;100429.63;;;24.60;64.20
9335;BME280;4706;41.844;26.082;2023-05-23T09:12:47;100435.25;;;24.60;62.76
9335;BME280;4706;41.844;26.082;2023-05-23T09:15:13;100425.16;;;24.59;61.25
9335;BME280;4706;41.844;26.082;2023-05-23T09:17:39;100421.97;;;24.64;61.17
9335;BME280;4706;41.844;26.082;2023-05-23T09:20:12;100420.34;;;24.67;60.65
9335;BME280;4706;41.844;26.082;2023-05-23T09:22:39;100430.03;;;24.80;60.53
9335;BME280;4706;41.844;26.082;2023-05-23T09:25:06;100426.41;;;24.76;60.28
9335;BME280;4706;41.844;26.082;2023-05-23T09:27:32;100405.88;;;24.47;61.14
9335;BME280;4706;41.844;26.082;2023-05-23T09:30:04;100424.75;;;24.39;61.50
9335;BME280;4706;41.844;26.082;2023-05-23T09:32:30;100412.25;;;24.33;60.62
9335;BME280;4706;41.844;26.082;2023-05-23T09:34:58;100423.09;;;24.31;60.29
9335;BME280;4706;41.844;26.082;2023-05-23T09:37:33;100422.25;;;24.16;62.34
9335;BME280;4706;41.844;26.082;2023-05-23T09:39:59;100426.31;;;24.26;64.21
9335;BME280;4706;41.844;26.082;2023-05-23T09:42:33;100424.25;;;24.12;64.54
9335;BME280;4706;41.844;26.082;2023-05-23T09:44:59;100418.66;;;24.16;62.52
9335;BME280;4706;41.844;26.082;2023-05-23T09:47:24;100427.50;;;24.25;62.21
9335;BME280;4706;41.844;26.082;2023-05-23T09:49:51;100423.91;;;24.35;61.30
9335;BME280;4706;41.844;26.082;2023-05-23T09:52:17;100420.75;;;24.47;60.32
9335;BME280;4706;41.844;26.082;2023-05-23T09:54:45;100405.09;;;24.50;60.79
9335;BME280;4706;41.844;26.082;2023-05-23T09:57:12;100403.50;;;24.56;60.36
9335;BME280;4706;41.844;26.082;2023-05-23T09:59:40;100406.28;;;24.67;60.16
9335;BME280;4706;41.844;26.082;2023-05-23T10:02:10;100403.91;;;24.76;59.83
9335;BME280;4706;41.844;26.082;2023-05-23T10:04:38;100406.69;;;25.05;60.26
9335;BME280;4706;41.844;26.082;2023-05-23T10:07:19;100406.31;;;25.28;60.14
9335;BME280;4706;41.844;26.082;2023-05-23T10:09:51;100395.38;;;25.44;58.23
9335;BME280;4706;41.844;26.082;2023-05-23T10:15:00;100409.84;;;25.42;57.56
9335;BME280;4706;41.844;26.082;2023-05-23T10:20:09;100388.31;;;26.69;54.34
9335;BME280;4706;41.844;26.082;2023-05-23T10:22:37;100392.38;;;27.50;51.31
9335;BME280;4706;41.844;26.082;2023-05-23T10:25:06;100376.19;;;28.16;48.75
9335;BME280;4706;41.844;26.082;2023-05-23T10:27:36;100372.97;;;28.44;46.30
9335;BME280;4706;41.844;26.082;2023-05-23T10:30:02;100369.03;;;28.62;44.78
9335;BME280;4706;41.844;26.082;2023-05-23T10:32:28;100365.91;;;28.79;44.11
9335;BME280;4706;41.844;26.082;2023-05-23T10:35:41;100373.44;;;29.13;45.09
9335;BME280;4706;41.844;26.082;2023-05-23T10:41:00;100362.03;;;29.37;44.11
9335;BME280;4706;41.844;26.082;2023-05-23T10:43:42;100368.25;;;28.85;43.58
9335;BME280;4706;41.844;26.082;2023-05-23T10:46:12;100368.00;;;28.52;44.18
9335;BME280;4706;41.844;26.082;2023-05-23T10:48:42;100375.41;;;28.15;44.56
9335;BME280;4706;41.844;26.082;2023-05-23T10:51:12;100367.91;;;28.01;45.81
9335;BME280;4706;41.844;26.082;2023-05-23T10:53:41;100366.47;;;28.17;45.08
9335;BME280;4706;41.844;26.082;2023-05-23T10:56:08;100360.47;;;28.42;44.48
9335;BME280;4706;41.844;26.082;2023-05-23T10:58:36;100375.09;;;28.64;44.36
9335;BME280;4706;41.844;26.082;2023-05-23T11:01:07;100376.56;;;28.72;43.66
9335;BME280;4706;41.844;26.082;2023-05-23T11:03:48;100383.88;;;28.69;43.44
9335;BME280;4706;41.844;26.082;2023-05-23T11:09:11;100413.41;;;27.04;47.28
9335;BME280;4706;41.844;26.082;2023-05-23T11:14:31;100413.13;;;25.30;54.48
9335;BME280;4706;41.844;26.082;2023-05-23T11:19:37;100411.44;;;24.15;66.09
9335;BME280;4706;41.844;26.082;2023-05-23T11:22:04;100416.31;;;23.48;69.43
9335;BME280;4706;41.844;26.082;2023-05-23T11:24:51;100442.09;;;23.02;76.57
9335;BME280;4706;41.844;26.082;2023-05-23T11:27:28;100442.00;;;22.51;80.74
9335;BME280;4706;41.844;26.082;2023-05-23T11:30:00;100437.06;;;22.07;84.14
9335;BME280;4706;41.844;26.082;2023-05-23T11:32:30;100441.91;;;22.10;85.18
9335;BME280;4706;41.844;26.082;2023-05-23T11:35:00;100432.16;;;22.27;88.65
9335;BME280;4706;41.844;26.082;2023-05-23T11:37:27;100422.63;;;22.35;89.80
9335;BME280;4706;41.844;26.082;2023-05-23T11:39:53;100409.38;;;22.32;88.57
9335;BME280;4706;41.844;26.082;2023-05-23T11:42:19;100406.47;;;22.21;91.84
9335;BME280;4706;41.844;26.082;2023-05-23T11:44:48;100401.72;;;22.29;94.67
9335;BME280;4706;41.844;26.082;2023-05-23T11:47:14;100398.81;;;22.18;92.31
9335;BME280;4706;41.844;26.082;2023-05-23T11:49:39;100400.97;;;22.32;91.41
9335;BME280;4706;41.844;26.082;2023-05-23T11:52:05;100404.25;;;22.41;89.99
9335;BME280;4706;41.844;26.082;2023-05-23T11:54:32;100397.56;;;22.53;86.77
9335;BME280;4706;41.844;26.082;2023-05-23T11:56:57;100393.13;;;22.52;89.05
9335;BME280;4706;41.844;26.082;2023-05-23T11:59:25;100388.13;;;22.72;89.08
9335;BME280;4706;41.844;26.082;2023-05-23T12:01:54;100391.91;;;22.94;88.82
9335;BME280;4706;41.844;26.082;2023-05-23T12:04:20;100375.16;;;23.05;87.94
9335;BME280;4706;41.844;26.082;2023-05-23T12:06:47;100381.66;;;23.19;88.14
9335;BME280;4706;41.844;26.082;2023-05-23T12:09:14;100381.78;;;23.37;91.41
9335;BME280;4706;41.844;26.082;2023-05-23T12:11:41;100366.59;;;23.45;90.30
9335;BME280;4706;41.844;26.082;2023-05-23T12:14:07;100383.50;;;23.60;88.67
9335;BME280;4706;41.844;26.082;2023-05-23T12:16:34;100374.34;;;23.66;82.55
9335;BME280;4706;41.844;26.082;2023-05-23T12:19:02;100382.72;;;23.63;81.55
9335;BME280;4706;41.844;26.082;2023-05-23T12:22:04;100376.31;;;23.62;86.79
9335;BME280;4706;41.844;26.082;2023-05-23T12:24:30;100378.41;;;23.83;80.87
9335;BME280;4706;41.844;26.082;2023-05-23T12:27:00;100376.41;;;23.84;79.56
9335;BME280;4706;41.844;26.082;2023-05-23T12:29:31;100366.38;;;23.86;82.54
9335;BME280;4706;41.844;26.082;2023-05-23T12:31:58;100365.19;;;23.91;78.37
9335;BME280;4706;41.844;26.082;2023-05-23T12:34:23;100350.34;;;23.97;79.41
9335;BME280;4706;41.844;26.082;2023-05-23T12:36:53;100366.44;;;24.04;78.58
9335;BME280;4706;41.844;26.082;2023-05-23T12:39:27;100365.22;;;24.05;81.75
9335;BME280;4706;41.844;26.082;2023-05-23T12:41:53;100363.63;;;24.01;75.55
9335;BME280;4706;41.844;26.082;2023-05-23T12:44:23;100360.00;;;24.00;77.18
9335;BME280;4706;41.844;26.082;2023-05-23T12:46:48;100367.63;;;24.03;76.54
9335;BME280;4706;41.844;26.082;2023-05-23T12:49:14;100352.75;;;23.99;76.37
9335;BME280;4706;41.844;26.082;2023-05-23T12:51:40;100356.38;;;23.99;73.33
9335;BME280;4706;41.844;26.082;2023-05-23T12:54:07;100362.38;;;23.91;77.14
9335;BME280;4706;41.844;26.082;2023-05-23T12:56:33;100357.56;;;23.91;75.12
9335;BME280;4706;41.844;26.082;2023-05-23T12:58:58;100359.53;;;23.80;75.36
9335;BME280;4706;41.844;26.082;2023-05-23T13:01:26;100365.56;;;23.79;74.43
9335;BME280;4706;41.844;26.082;2023-05-23T13:03:51;100363.16;;;23.77;75.06
9335;BME280;4706;41.844;26.082;2023-05-23T13:06:17;100363.50;;;23.68;76.67
9335;BME280;4706;41.844;26.082;2023-05-23T13:08:42;100356.16;;;23.49;77.92
9335;BME280;4706;41.844;26.082;2023-05-23T13:11:08;100354.69;;;23.70;75.03
9335;BME280;4706;41.844;26.082;2023-05-23T13:13:34;100342.25;;;23.71;75.94
9335;BME280;4706;41.844;26.082;2023-05-23T13:15:59;100340.59;;;23.63;78.11
9335;BME280;4706;41.844;26.082;2023-05-23T13:18:25;100336.97;;;23.59;76.90
9335;BME280;4706;41.844;26.082;2023-05-23T13:20:51;100337.06;;;23.80;72.01